sensor_id;sensor_type;location;lat;lon;timestamp;pressure;altitude;pressure_sealevel;temperature;humidity
50368;BME280;36281;34.132;-118.018;2023-07-13T00:01:33;99772.88;;;35.46;13.43
50368;BME280;36281;34.132;-118.018;2023-07-13T00:04:02;99781.03;;;35.39;13.45
50368;BME280;36281;34.132;-118.018;2023-07-13T00:06:31;99776.31;;;35.36;13.36
50368;BME280;36281;34.132;-118.018;2023-07-13T00:09:01;99772.75;;;35.36;13.42
50368;BME280;36281;34.132;-118.018;2023-07-13T00:11:30;99773.13;;;35.34;12.58
50368;BME280;36281;34.132;-118.018;2023-07-13T00:14:02;99773.91;;;35.31;13.36
50368;BME280;36281;34.132;-118.018;2023-07-13T00:16:34;99764.34;;;35.18;13.12
50368;BME280;36281;34.132;-118.018;2023-07-13T00:19:04;99768.22;;;35.13;13.22
50368;BME280;36281;34.132;-118.018;2023-07-13T00:21:33;99762.28;;;35.08;13.18
50368;BME280;36281;34.132;-118.018;2023-07-13T00:24:04;99757.91;;;35.03;13.08
50368;BME280;36281;34.132;-118.018;2023-07-13T00:26:33;99756.34;;;35.02;13.33
50368;BME280;36281;34.132;-118.018;2023-07-13T00:29:04;99750.75;;;34.95;14.14
50368;BME280;36281;34.132;-118.018;2023-07-13T00:31:36;99756.22;;;34.91;14.02
50368;BME280;36281;34.132;-118.018;2023-07-13T00:34:06;99748.72;;;34.88;14.00
50368;BME280;36281;34.132;-118.018;2023-07-13T00:36:35;99746.34;;;34.87;12.78
50368;BME280;36281;34.132;-118.018;2023-07-13T00:39:04;99734.84;;;34.78;13.78
50368;BME280;36281;34.132;-118.018;2023-07-13T00:41:34;99739.59;;;34.81;13.22
50368;BME280;36281;34.132;-118.018;2023-07-13T00:44:08;99739.13;;;34.75;12.93
50368;BME280;36281;34.132;-118.018;2023-07-13T00:46:38;99747.72;;;34.70;13.49
50368;BME280;36281;34.132;-118.018;2023-07-13T00:49:10;99742.56;;;34.61;13.65
50368;BME280;36281;34.132;-118.018;2023-07-13T00:51:55;99747.56;;;34.56;13.73
50368;BME280;36281;34.132;-118.018;2023-07-13T00:54:26;99740.84;;;34.50;14.00
50368;BME280;36281;34.132;-118.018;2023-07-13T00:57:09;99743.50;;;34.42;14.07
50368;BME280;36281;34.132;-118.018;2023-07-13T00:59:43;99739.06;;;34.34;14.24
50368;BME280;36281;34.132;-118.018;2023-07-13T01:02:14;99744.44;;;34.24;14.54
50368;BME280;36281;34.132;-118.018;2023-07-13T01:04:44;99743.22;;;34.21;14.00
50368;BME280;36281;34.132;-118.018;2023-07-13T01:07:13;99718.28;;;34.03;14.14
50368;BME280;36281;34.132;-118.018;2023-07-13T01:09:43;99740.38;;;34.14;13.52
50368;BME280;36281;34.132;-118.018;2023-07-13T01:12:18;99743.84;;;34.07;14.04
50368;BME280;36281;34.132;-118.018;2023-07-13T01:14:56;99737.91;;;34.05;13.39
50368;BME280;36281;34.132;-118.018;2023-07-13T01:17:25;99741.00;;;34.00;14.05
50368;BME280;36281;34.132;-118.018;2023-07-13T01:19:54;99734.94;;;33.91;14.29
50368;BME280;36281;34.132;-118.018;2023-07-13T01:22:25;99743.81;;;33.77;14.53
50368;BME280;36281;34.132;-118.018;2023-07-13T01:24:57;99747.69;;;33.76;14.04
50368;BME280;36281;34.132;-118.018;2023-07-13T01:27:26;99753.41;;;33.64;13.56
50368;BME280;36281;34.132;-118.018;2023-07-13T01:29:56;99745.81;;;33.54;13.92
50368;BME280;36281;34.132;-118.018;2023-07-13T01:32:30;99759.84;;;33.49;14.56
50368;BME280;36281;34.132;-118.018;2023-07-13T01:35:01;99756.13;;;33.37;14.64
50368;BME280;36281;34.132;-118.018;2023-07-13T01:37:32;99759.88;;;33.29;14.83
50368;BME280;36281;34.132;-118.018;2023-07-13T01:40:05;99757.84;;;33.23;14.84
50368;BME280;36281;34.132;-118.018;2023-07-13T01:42:36;99758.19;;;33.21;15.70
50368;BME280;36281;34.132;-118.018;2023-07-13T01:45:06;99758.38;;;33.09;14.86
50368;BME280;36281;34.132;-118.018;2023-07-13T01:47:35;99769.66;;;33.04;14.49
50368;BME280;36281;34.132;-118.018;2023-07-13T01:50:05;99763.59;;;32.95;15.39
50368;BME280;36281;34.132;-118.018;2023-07-13T01:52:36;99768.78;;;32.80;15.45
50368;BME280;36281;34.132;-118.018;2023-07-13T01:55:06;99762.53;;;32.80;15.55
50368;BME280;36281;34.132;-118.018;2023-07-13T01:57:36;99762.41;;;32.73;14.85
50368;BME280;36281;34.132;-118.018;2023-07-13T02:00:08;99768.69;;;32.54;14.94
50368;BME280;36281;34.132;-118.018;2023-07-13T02:02:37;99763.06;;;32.47;14.23
50368;BME280;36281;34.132;-118.018;2023-07-13T02:05:07;99760.09;;;32.36;14.69
50368;BME280;36281;34.132;-118.018;2023-07-13T02:07:39;99766.19;;;32.10;14.43
50368;BME280;36281;34.132;-118.018;2023-07-13T02:10:09;99770.19;;;31.97;15.17
50368;BME280;36281;34.132;-118.018;2023-07-13T02:12:38;99771.34;;;31.96;15.32
50368;BME280;36281;34.132;-118.018;2023-07-13T02:15:08;99767.69;;;31.88;15.49
50368;BME280;36281;34.132;-118.018;2023-07-13T02:17:37;99778.53;;;31.84;15.60
50368;BME280;36281;34.132;-118.018;2023-07-13T02:20:07;99778.78;;;31.79;15.48
50368;BME280;36281;34.132;-118.018;2023-07-13T02:22:39;99787.19;;;31.71;15.51
50368;BME280;36281;34.132;-118.018;2023-07-13T02:25:09;99785.41;;;31.62;15.40
50368;BME280;36281;34.132;-118.018;2023-07-13T02:27:38;99795.56;;;31.62;15.76
50368;BME280;36281;34.132;-118.018;2023-07-13T02:30:08;99788.41;;;31.57;16.06
50368;BME280;36281;34.132;-118.018;2023-07-13T02:32:37;99796.03;;;31.48;15.25
50368;BME280;36281;34.132;-118.018;2023-07-13T02:35:06;99792.69;;;31.39;15.30
50368;BME280;36281;34.132;-118.018;2023-07-13T02:37:38;99801.50;;;31.32;15.63
50368;BME280;36281;34.132;-118.018;2023-07-13T02:40:12;99809.06;;;31.23;15.88
50368;BME280;36281;34.132;-118.018;2023-07-13T02:42:43;99804.13;;;31.13;16.34
50368;BME280;36281;34.132;-118.018;2023-07-13T02:45:15;99807.59;;;30.98;16.17
50368;BME280;36281;34.132;-118.018;2023-07-13T02:47:44;99798.41;;;30.90;16.24
50368;BME280;36281;34.132;-118.018;2023-07-13T02:50:13;99806.88;;;30.85;16.39
50368;BME280;36281;34.132;-118.018;2023-07-13T02:52:42;99814.31;;;30.72;16.69
50368;BME280;36281;34.132;-118.018;2023-07-13T02:55:13;99814.47;;;30.63;16.24
50368;BME280;36281;34.132;-118.018;2023-07-13T02:57:42;99822.44;;;30.56;16.20
50368;BME280;36281;34.132;-118.018;2023-07-13T03:00:12;99820.31;;;30.50;16.45
50368;BME280;36281;34.132;-118.018;2023-07-13T03:02:41;99820.44;;;30.41;15.54
50368;BME280;36281;34.132;-118.018;2023-07-13T03:05:12;99825.25;;;30.32;15.63
50368;BME280;36281;34.132;-118.018;2023-07-13T03:07:42;99830.16;;;30.26;15.58
50368;BME280;36281;34.132;-118.018;2023-07-13T03:10:17;99823.34;;;30.20;15.47
50368;BME280;36281;34.132;-118.018;2023-07-13T03:12:46;99831.31;;;30.13;15.44
50368;BME280;36281;34.132;-118.018;2023-07-13T03:15:15;99831.06;;;30.06;15.97
50368;BME280;36281;34.132;-118.018;2023-07-13T03:17:44;99841.78;;;29.99;15.45
50368;BME280;36281;34.132;-118.018;2023-07-13T03:20:13;99842.00;;;29.94;15.90
50368;BME280;36281;34.132;-118.018;2023-07-13T03:22:42;99848.38;;;29.85;16.19
50368;BME280;36281;34.132;-118.018;2023-07-13T03:25:19;99851.06;;;29.73;16.45
50368;BME280;36281;34.132;-118.018;2023-07-13T03:27:48;99857.56;;;29.69;17.09
50368;BME280;36281;34.132;-118.018;2023-07-13T03:30:17;99855.75;;;29.60;16.54
50368;BME280;36281;34.132;-118.018;2023-07-13T03:32:46;99857.75;;;29.51;17.54
50368;BME280;36281;34.132;-118.018;2023-07-13T03:35:15;99861.69;;;29.42;17.10
50368;BME280;36281;34.132;-118.018;2023-07-13T03:37:47;99864.19;;;29.34;17.06
50368;BME280;36281;34.132;-118.018;2023-07-13T03:40:21;99862.69;;;29.25;18.03
50368;BME280;36281;34.132;-118.018;2023-07-13T03:42:50;99868.44;;;29.11;18.10
50368;BME280;36281;34.132;-118.018;2023-07-13T03:45:19;99870.56;;;29.05;17.68
50368;BME280;36281;34.132;-118.018;2023-07-13T03:47:48;99873.81;;;28.99;17.98
50368;BME280;36281;34.132;-118.018;2023-07-13T03:50:20;99877.41;;;28.91;17.95
50368;BME280;36281;34.132;-118.018;2023-07-13T03:52:49;99871.69;;;28.83;18.39
50368;BME280;36281;34.132;-118.018;2023-07-13T03:55:20;99865.84;;;28.73;17.62
50368;BME280;36281;34.132;-118.018;2023-07-13T03:57:54;99871.97;;;28.70;17.67
50368;BME280;36281;34.132;-118.018;2023-07-13T04:00:28;99870.09;;;28.62;18.05
50368;BME280;36281;34.132;-118.018;2023-07-13T04:02:57;99869.16;;;28.57;18.11
50368;BME280;36281;34.132;-118.018;2023-07-13T04:05:27;99869.38;;;28.52;17.81
50368;BME280;36281;34.132;-118.018;2023-07-13T04:07:56;99875.66;;;28.44;18.54
50368;BME280;36281;34.132;-118.018;2023-07-13T04:10:27;99878.59;;;28.39;18.26
50368;BME280;36281;34.132;-118.018;2023-07-13T04:12:56;99864.53;;;28.28;18.57
50368;BME280;36281;34.132;-118.018;2023-07-13T04:15:29;99877.00;;;28.29;18.82
50368;BME280;36281;34.132;-118.018;2023-07-13T04:17:59;99878.53;;;28.18;18.72
50368;BME280;36281;34.132;-118.018;2023-07-13T04:20:28;99878.06;;;28.16;19.22
50368;BME280;36281;34.132;-118.018;2023-07-13T04:22:57;99883.34;;;28.13;18.78
50368;BME280;36281;34.132;-118.018;2023-07-13T04:25:28;99888.53;;;28.05;18.98
50368;BME280;36281;34.132;-118.018;2023-07-13T04:27:59;99886.63;;;27.97;19.04
50368;BME280;36281;34.132;-118.018;2023-07-13T04:30:29;99893.84;;;27.93;20.24
50368;BME280;36281;34.132;-118.018;2023-07-13T04:32:58;99887.97;;;27.82;20.47
50368;BME280;36281;34.132;-118.018;2023-07-13T04:35:27;99902.53;;;27.87;21.10
50368;BME280;36281;34.132;-118.018;2023-07-13T04:37:58;99891.84;;;27.81;21.36
50368;BME280;36281;34.132;-118.018;2023-07-13T04:40:29;99900.03;;;27.73;21.37
50368;BME280;36281;34.132;-118.018;2023-07-13T04:42:58;99910.72;;;27.69;21.09
50368;BME280;36281;34.132;-118.018;2023-07-13T04:45:27;99914.41;;;27.65;21.22
50368;BME280;36281;34.132;-118.018;2023-07-13T04:47:56;99914.28;;;27.61;21.51
50368;BME280;36281;34.132;-118.018;2023-07-13T04:50:28;99925.97;;;27.53;21.36
50368;BME280;36281;34.132;-118.018;2023-07-13T04:52:57;99932.22;;;27.45;21.05
50368;BME280;36281;34.132;-118.018;2023-07-13T04:55:29;99932.72;;;27.38;21.66
50368;BME280;36281;34.132;-118.018;2023-07-13T04:57:59;99930.78;;;27.30;21.12
50368;BME280;36281;34.132;-118.018;2023-07-13T05:00:31;99934.16;;;27.27;21.08
50368;BME280;36281;34.132;-118.018;2023-07-13T05:03:00;99934.81;;;27.24;21.16
50368;BME280;36281;34.132;-118.018;2023-07-13T05:05:32;99943.00;;;27.15;21.51
50368;BME280;36281;34.132;-118.018;2023-07-13T05:08:02;99936.88;;;27.10;22.10
50368;BME280;36281;34.132;-118.018;2023-07-13T05:10:33;99938.13;;;27.03;22.75
50368;BME280;36281;34.132;-118.018;2023-07-13T05:13:04;99937.84;;;26.96;22.94
50368;BME280;36281;34.132;-118.018;2023-07-13T05:15:33;99945.97;;;26.88;23.59
50368;BME280;36281;34.132;-118.018;2023-07-13T05:18:03;99937.97;;;26.83;24.99
50368;BME280;36281;34.132;-118.018;2023-07-13T05:20:32;99942.75;;;26.77;25.68
50368;BME280;36281;34.132;-118.018;2023-07-13T05:23:01;99939.69;;;26.70;26.48
50368;BME280;36281;34.132;-118.018;2023-07-13T05:25:30;99940.81;;;26.60;27.02
50368;BME280;36281;34.132;-118.018;2023-07-13T05:28:02;99952.31;;;26.57;27.83
50368;BME280;36281;34.132;-118.018;2023-07-13T05:30:31;99946.72;;;26.53;28.21
50368;BME280;36281;34.132;-118.018;2023-07-13T05:33:02;99952.75;;;26.50;28.75
50368;BME280;36281;34.132;-118.018;2023-07-13T05:35:31;99956.59;;;26.49;29.63
50368;BME280;36281;34.132;-118.018;2023-07-13T05:38:00;99956.44;;;26.46;30.09
50368;BME280;36281;34.132;-118.018;2023-07-13T05:40:29;99966.81;;;26.44;30.18
50368;BME280;36281;34.132;-118.018;2023-07-13T05:42:58;99963.09;;;26.40;29.88
50368;BME280;36281;34.132;-118.018;2023-07-13T05:45:29;99961.81;;;26.37;29.96
50368;BME280;36281;34.132;-118.018;2023-07-13T05:47:57;99975.72;;;26.36;29.88
50368;BME280;36281;34.132;-118.018;2023-07-13T05:50:27;99960.66;;;26.29;30.15
50368;BME280;36281;34.132;-118.018;2023-07-13T05:52:56;99970.41;;;26.30;29.92
50368;BME280;36281;34.132;-118.018;2023-07-13T05:55:28;99973.56;;;26.24;30.03
50368;BME280;36281;34.132;-118.018;2023-07-13T05:57:57;99971.00;;;26.19;31.20
50368;BME280;36281;34.132;-118.018;2023-07-13T06:00:28;99970.53;;;26.17;31.09
50368;BME280;36281;34.132;-118.018;2023-07-13T06:02:57;99977.38;;;26.14;31.48
50368;BME280;36281;34.132;-118.018;2023-07-13T06:05:27;99983.25;;;26.08;31.60
50368;BME280;36281;34.132;-118.018;2023-07-13T06:07:57;99973.47;;;25.98;31.06
50368;BME280;36281;34.132;-118.018;2023-07-13T06:10:26;99987.50;;;26.00;31.66
50368;BME280;36281;34.132;-118.018;2023-07-13T06:12:55;99987.97;;;25.93;31.49
50368;BME280;36281;34.132;-118.018;2023-07-13T06:15:24;99983.00;;;25.87;30.92
50368;BME280;36281;34.132;-118.018;2023-07-13T06:17:55;99988.22;;;25.83;31.71
50368;BME280;36281;34.132;-118.018;2023-07-13T06:20:26;99988.53;;;25.82;32.09
50368;BME280;36281;34.132;-118.018;2023-07-13T06:22:58;99989.47;;;25.77;32.09
50368;BME280;36281;34.132;-118.018;2023-07-13T06:25:27;99986.84;;;25.72;32.25
50368;BME280;36281;34.132;-118.018;2023-07-13T06:27:59;99974.34;;;25.62;31.49
50368;BME280;36281;34.132;-118.018;2023-07-13T06:30:29;99983.28;;;25.63;31.04
50368;BME280;36281;34.132;-118.018;2023-07-13T06:33:02;99976.38;;;25.57;31.92
50368;BME280;36281;34.132;-118.018;2023-07-13T06:35:31;99972.69;;;25.52;32.02
50368;BME280;36281;34.132;-118.018;2023-07-13T06:38:00;99973.09;;;25.46;32.44
50368;BME280;36281;34.132;-118.018;2023-07-13T06:40:30;99972.75;;;25.39;32.22
50368;BME280;36281;34.132;-118.018;2023-07-13T06:43:00;99981.00;;;25.34;32.92
50368;BME280;36281;34.132;-118.018;2023-07-13T06:45:29;99984.03;;;25.32;33.31
50368;BME280;36281;34.132;-118.018;2023-07-13T06:48:00;99983.03;;;25.28;32.89
50368;BME280;36281;34.132;-118.018;2023-07-13T06:50:31;99987.66;;;25.27;33.02
50368;BME280;36281;34.132;-118.018;2023-07-13T06:53:00;99970.38;;;25.23;33.74
50368;BME280;36281;34.132;-118.018;2023-07-13T06:55:31;99973.69;;;25.20;33.96
50368;BME280;36281;34.132;-118.018;2023-07-13T06:58:00;99974.34;;;25.17;34.52
50368;BME280;36281;34.132;-118.018;2023-07-13T07:00:29;99975.84;;;25.10;34.45
50368;BME280;36281;34.132;-118.018;2023-07-13T07:02:59;99967.59;;;25.01;34.75
50368;BME280;36281;34.132;-118.018;2023-07-13T07:05:28;99967.72;;;24.96;34.93
50368;BME280;36281;34.132;-118.018;2023-07-13T07:07:59;99970.75;;;24.94;35.15
50368;BME280;36281;34.132;-118.018;2023-07-13T07:10:30;99965.44;;;24.89;35.52
50368;BME280;36281;34.132;-118.018;2023-07-13T07:13:00;99972.75;;;24.89;35.65
50368;BME280;36281;34.132;-118.018;2023-07-13T07:15:29;99967.94;;;24.86;35.84
50368;BME280;36281;34.132;-118.018;2023-07-13T07:18:01;99972.50;;;24.77;36.08
50368;BME280;36281;34.132;-118.018;2023-07-13T07:20:32;99957.75;;;24.69;36.60
50368;BME280;36281;34.132;-118.018;2023-07-13T07:23:03;99967.25;;;24.66;36.53
50368;BME280;36281;34.132;-118.018;2023-07-13T07:25:32;99961.94;;;24.61;36.62
50368;BME280;36281;34.132;-118.018;2023-07-13T07:28:03;99962.06;;;24.56;36.85
50368;BME280;36281;34.132;-118.018;2023-07-13T07:30:35;99963.78;;;24.52;36.63
50368;BME280;36281;34.132;-118.018;2023-07-13T07:33:07;99952.84;;;24.43;37.24
50368;BME280;36281;34.132;-118.018;2023-07-13T07:35:36;99959.66;;;24.41;37.66
50368;BME280;36281;34.132;-118.018;2023-07-13T07:38:27;99959.66;;;24.41;37.49
50368;BME280;36281;34.132;-118.018;2023-07-13T07:40:56;99955.16;;;24.36;37.46
50368;BME280;36281;34.132;-118.018;2023-07-13T07:43:28;99964.66;;;24.34;37.73
50368;BME280;36281;34.132;-118.018;2023-07-13T07:46:00;99959.84;;;24.31;37.77
50368;BME280;36281;34.132;-118.018;2023-07-13T07:48:30;99956.44;;;24.25;37.63
50368;BME280;36281;34.132;-118.018;2023-07-13T07:50:59;99953.03;;;24.19;38.09
50368;BME280;36281;34.132;-118.018;2023-07-13T07:53:30;99953.59;;;24.16;38.59
50368;BME280;36281;34.132;-118.018;2023-07-13T07:56:01;99952.00;;;24.15;39.07
50368;BME280;36281;34.132;-118.018;2023-07-13T07:58:52;99950.91;;;24.16;39.61
50368;BME280;36281;34.132;-118.018;2023-07-13T08:01:24;99946.09;;;24.13;39.28
50368;BME280;36281;34.132;-118.018;2023-07-13T08:03:56;99948.91;;;24.08;40.03
50368;BME280;36281;34.132;-118.018;2023-07-13T08:06:27;99942.97;;;24.06;39.92
50368;BME280;36281;34.132;-118.018;2023-07-13T08:09:13;99939.56;;;24.01;40.55
50368;BME280;36281;34.132;-118.018;2023-07-13T08:11:42;99935.38;;;23.94;40.77
50368;BME280;36281;34.132;-118.018;2023-07-13T08:14:14;99936.84;;;23.87;41.20
50368;BME280;36281;34.132;-118.018;2023-07-13T08:16:44;99934.84;;;23.79;41.44
50368;BME280;36281;34.132;-118.018;2023-07-13T08:19:13;99945.75;;;23.73;41.56
50368;BME280;36281;34.132;-118.018;2023-07-13T08:21:42;99949.03;;;23.70;41.43
50368;BME280;36281;34.132;-118.018;2023-07-13T08:24:13;99940.91;;;23.70;41.39
50368;BME280;36281;34.132;-118.018;2023-07-13T08:26:42;99937.41;;;23.70;41.64
50368;BME280;36281;34.132;-118.018;2023-07-13T08:29:11;99940.53;;;23.63;41.87
50368;BME280;36281;34.132;-118.018;2023-07-13T08:31:40;99944.66;;;23.56;42.26
50368;BME280;36281;34.132;-118.018;2023-07-13T08:34:09;99951.16;;;23.55;42.25
50368;BME280;36281;34.132;-118.018;2023-07-13T08:36:38;99946.34;;;23.52;43.24
50368;BME280;36281;34.132;-118.018;2023-07-13T08:39:07;99949.03;;;23.52;43.88
50368;BME280;36281;34.132;-118.018;2023-07-13T08:41:38;99950.44;;;23.49;43.75
50368;BME280;36281;34.132;-118.018;2023-07-13T08:44:19;99900.69;;;23.17;44.09
50368;BME280;36281;34.132;-118.018;2023-07-13T08:46:56;99924.34;;;23.26;44.33
50368;BME280;36281;34.132;-118.018;2023-07-13T08:49:27;99943.38;;;23.34;43.87
50368;BME280;36281;34.132;-118.018;2023-07-13T08:52:01;99950.16;;;23.32;43.92
50368;BME280;36281;34.132;-118.018;2023-07-13T08:54:35;99942.94;;;23.27;44.42
50368;BME280;36281;34.132;-118.018;2023-07-13T08:57:12;99948.94;;;23.24;44.60
50368;BME280;36281;34.132;-118.018;2023-07-13T08:59:44;99945.81;;;23.17;44.73
50368;BME280;36281;34.132;-118.018;2023-07-13T09:02:23;99938.59;;;23.12;45.06
50368;BME280;36281;34.132;-118.018;2023-07-13T09:04:56;99945.06;;;23.11;44.80
50368;BME280;36281;34.132;-118.018;2023-07-13T09:07:38;99942.69;;;23.10;46.09
50368;BME280;36281;34.132;-118.018;2023-07-13T09:10:15;99935.38;;;23.10;46.62
50368;BME280;36281;34.132;-118.018;2023-07-13T09:13:00;99944.88;;;23.08;46.52
50368;BME280;36281;34.132;-118.018;2023-07-13T09:15:36;99936.63;;;22.99;46.42
50368;BME280;36281;34.132;-118.018;2023-07-13T09:18:11;99934.31;;;22.92;46.77
50368;BME280;36281;34.132;-118.018;2023-07-13T09:20:46;99929.75;;;22.88;46.41
50368;BME280;36281;34.132;-118.018;2023-07-13T09:23:19;99928.19;;;22.82;46.20
50368;BME280;36281;34.132;-118.018;2023-07-13T09:25:53;99933.66;;;22.77;46.95
50368;BME280;36281;34.132;-118.018;2023-07-13T09:28:28;99929.06;;;22.77;46.85
50368;BME280;36281;34.132;-118.018;2023-07-13T09:31:06;99928.56;;;22.75;47.35
50368;BME280;36281;34.132;-118.018;2023-07-13T09:33:36;99916.44;;;22.73;47.96
50368;BME280;36281;34.132;-118.018;2023-07-13T09:36:20;99926.72;;;22.70;48.12
50368;BME280;36281;34.132;-118.018;2023-07-13T09:38:52;99916.78;;;22.66;48.13
50368;BME280;36281;34.132;-118.018;2023-07-13T09:41:30;99917.38;;;22.63;48.30
50368;BME280;36281;34.132;-118.018;2023-07-13T09:44:09;99921.16;;;22.62;47.97
50368;BME280;36281;34.132;-118.018;2023-07-13T09:46:44;99918.25;;;22.58;48.45
50368;BME280;36281;34.132;-118.018;2023-07-13T09:49:14;99914.22;;;22.56;49.25
50368;BME280;36281;34.132;-118.018;2023-07-13T09:51:43;99912.31;;;22.56;49.66
50368;BME280;36281;34.132;-118.018;2023-07-13T09:54:20;99911.81;;;22.54;49.78
50368;BME280;36281;34.132;-118.018;2023-07-13T09:56:54;99912.41;;;22.51;49.79
50368;BME280;36281;34.132;-118.018;2023-07-13T09:59:29;99904.13;;;22.42;49.69
50368;BME280;36281;34.132;-118.018;2023-07-13T10:02:02;99900.13;;;22.40;49.49
50368;BME280;36281;34.132;-118.018;2023-07-13T10:04:34;99895.84;;;22.39;49.49
50368;BME280;36281;34.132;-118.018;2023-07-13T10:07:06;99899.63;;;22.38;50.49
50368;BME280;36281;34.132;-118.018;2023-07-13T10:09:55;99897.50;;;22.35;51.24
50368;BME280;36281;34.132;-118.018;2023-07-13T10:12:28;99879.28;;;22.22;51.10
50368;BME280;36281;34.132;-118.018;2023-07-13T10:15:00;99888.94;;;22.28;50.99
50368;BME280;36281;34.132;-118.018;2023-07-13T10:17:51;99897.97;;;22.18;50.94
50368;BME280;36281;34.132;-118.018;2023-07-13T10:20:21;99897.22;;;22.07;51.22
50368;BME280;36281;34.132;-118.018;2023-07-13T10:22:54;99906.97;;;22.08;51.73
50368;BME280;36281;34.132;-118.018;2023-07-13T10:25:25;99906.97;;;22.08;51.66
50368;BME280;36281;34.132;-118.018;2023-07-13T10:28:02;99904.75;;;22.10;51.96
50368;BME280;36281;34.132;-118.018;2023-07-13T10:30:35;99906.41;;;22.11;51.86
50368;BME280;36281;34.132;-118.018;2023-07-13T10:33:11;99899.38;;;22.10;51.84
50368;BME280;36281;34.132;-118.018;2023-07-13T10:35:43;99910.16;;;22.10;51.97
50368;BME280;36281;34.132;-118.018;2023-07-13T10:38:17;99908.31;;;22.06;52.94
50368;BME280;36281;34.132;-118.018;2023-07-13T10:40:55;99903.78;;;22.01;53.77
50368;BME280;36281;34.132;-118.018;2023-07-13T10:43:41;99903.28;;;21.99;54.47
50368;BME280;36281;34.132;-118.018;2023-07-13T10:46:15;99907.56;;;22.00;54.34
50368;BME280;36281;34.132;-118.018;2023-07-13T10:48:48;99908.66;;;21.99;54.38
50368;BME280;36281;34.132;-118.018;2023-07-13T10:51:21;99903.84;;;21.96;54.47
50368;BME280;36281;34.132;-118.018;2023-07-13T10:54:17;99921.72;;;21.87;54.83
50368;BME280;36281;34.132;-118.018;2023-07-13T10:56:50;99915.56;;;21.81;54.87
50368;BME280;36281;34.132;-118.018;2023-07-13T10:59:26;99911.03;;;21.77;55.23
50368;BME280;36281;34.132;-118.018;2023-07-13T11:02:06;99920.22;;;21.76;55.04
50368;BME280;36281;34.132;-118.018;2023-07-13T11:04:43;99928.88;;;21.73;55.30
50368;BME280;36281;34.132;-118.018;2023-07-13T11:07:20;99923.47;;;21.73;55.25
50368;BME280;36281;34.132;-118.018;2023-07-13T11:12:49;99937.84;;;21.63;55.76
50368;BME280;36281;34.132;-118.018;2023-07-13T11:15:31;99941.94;;;21.60;55.90
50368;BME280;36281;34.132;-118.018;2023-07-13T11:18:09;99934.38;;;21.57;55.88
50368;BME280;36281;34.132;-118.018;2023-07-13T11:20:42;99933.88;;;21.55;56.62
50368;BME280;36281;34.132;-118.018;2023-07-13T11:23:27;99939.59;;;21.49;57.00
50368;BME280;36281;34.132;-118.018;2023-07-13T11:25:59;99935.06;;;21.44;56.94
50368;BME280;36281;34.132;-118.018;2023-07-13T11:28:31;99929.13;;;21.42;57.40
50368;BME280;36281;34.132;-118.018;2023-07-13T11:31:03;99929.34;;;21.51;57.79
50368;BME280;36281;34.132;-118.018;2023-07-13T11:33:55;99940.13;;;21.51;58.06
50368;BME280;36281;34.132;-118.018;2023-07-13T11:36:32;99937.16;;;21.47;58.22
50368;BME280;36281;34.132;-118.018;2023-07-13T11:39:16;99939.88;;;21.47;58.42
50368;BME280;36281;34.132;-118.018;2023-07-13T11:41:51;99942.84;;;21.46;58.72
50368;BME280;36281;34.132;-118.018;2023-07-13T11:44:22;99941.81;;;21.41;58.82
50368;BME280;36281;34.132;-118.018;2023-07-13T11:46:53;99942.06;;;21.45;58.94
50368;BME280;36281;34.132;-118.018;2023-07-13T11:49:26;99945.28;;;21.42;58.69
50368;BME280;36281;34.132;-118.018;2023-07-13T11:52:00;99960.16;;;21.39;59.33
50368;BME280;36281;34.132;-118.018;2023-07-13T11:54:32;99956.91;;;21.37;60.32
50368;BME280;36281;34.132;-118.018;2023-07-13T11:57:19;99951.84;;;21.31;60.12
50368;BME280;36281;34.132;-118.018;2023-07-13T11:59:54;99956.72;;;21.24;59.89
50368;BME280;36281;34.132;-118.018;2023-07-13T12:02:28;99957.78;;;21.23;59.94
50368;BME280;36281;34.132;-118.018;2023-07-13T12:05:02;99956.47;;;21.20;60.23
50368;BME280;36281;34.132;-118.018;2023-07-13T12:07:33;99948.94;;;21.17;59.95
50368;BME280;36281;34.132;-118.018;2023-07-13T12:10:02;99950.84;;;21.16;59.90
50368;BME280;36281;34.132;-118.018;2023-07-13T12:12:32;99947.63;;;21.14;60.03
50368;BME280;36281;34.132;-118.018;2023-07-13T12:15:01;99944.94;;;21.14;60.11
50368;BME280;36281;34.132;-118.018;2023-07-13T12:17:35;99949.78;;;21.12;60.14
50368;BME280;36281;34.132;-118.018;2023-07-13T12:20:18;99944.72;;;21.06;60.51
50368;BME280;36281;34.132;-118.018;2023-07-13T12:22:48;99957.38;;;21.05;60.60
50368;BME280;36281;34.132;-118.018;2023-07-13T12:25:19;99949.84;;;21.02;60.51
50368;BME280;36281;34.132;-118.018;2023-07-13T12:27:49;99955.81;;;20.99;60.76
50368;BME280;36281;34.132;-118.018;2023-07-13T12:30:28;99949.88;;;20.97;61.16
50368;BME280;36281;34.132;-118.018;2023-07-13T12:33:06;99959.00;;;21.01;61.83
50368;BME280;36281;34.132;-118.018;2023-07-13T12:35:44;99959.84;;;20.97;61.75
50368;BME280;36281;34.132;-118.018;2023-07-13T12:38:16;99953.16;;;20.94;62.25
50368;BME280;36281;34.132;-118.018;2023-07-13T12:40:49;99970.13;;;20.89;62.34
50368;BME280;36281;34.132;-118.018;2023-07-13T12:43:22;99972.28;;;20.87;62.44
50368;BME280;36281;34.132;-118.018;2023-07-13T12:45:56;99973.09;;;20.83;62.76
50368;BME280;36281;34.132;-118.018;2023-07-13T12:48:26;99969.59;;;20.82;62.74
50368;BME280;36281;34.132;-118.018;2023-07-13T12:51:14;99967.72;;;20.83;62.90
50368;BME280;36281;34.132;-118.018;2023-07-13T12:53:48;99976.34;;;20.85;62.74
50368;BME280;36281;34.132;-118.018;2023-07-13T12:56:21;99977.94;;;20.86;62.95
50368;BME280;36281;34.132;-118.018;2023-07-13T12:58:57;99979.53;;;20.87;63.63